首页
METAR-TAF:

METAR-TAF

机场 :

富山機場

富山, 日本

纬度: 36-39N, 经度: 137-11E, 海拔: 24米

当前天气观测

该预报发布于1小时和11分钟前的01:00 UTC
风速10节,风向,在南转南东西南之间变化
温度 35°C
湿度 42%
气压 1011 hPa
能见度10公里或以上
少量云层高于4000英尺

METAR: RJNT 220100Z 19010KT 150V220 9999 FEW040 35/20 Q1011

时间: 11:11 (02:11 UTC)

预报

该预报发布于3小时和2分钟前的23:09 UTC
预报有效从22日的 00点(UTC)到 23日的 06点(UTC)
风速14节,风向
能见度10公里或以上
少量云层高于4000英尺
成为
从 22日的 04点(UTC)到 22日的 06点(UTC)
风速8节,风向
成为
从 22日的 09点(UTC)到 22日的 11点(UTC)
风速4节,风向
成为
从 22日的 21点(UTC)到 23日的 00点(UTC)
风速8节,风向

TAF: RJNT 212309Z 2200/2306 19014KT 9999 FEW040 BECMG 2204/2206 36008KT BECMG 2209/2211 18004KT BECMG 2221/2300 01008KT

超过4000个机场的气象观测和天气预报(METAR&TAF报告)。

可查询的气象台以黄色和红色小点在地图上表示。

将鼠标移到小点上方,可查看气象台名称。

然后点击查看天气观测和预报。

如需切换地图:点击带黑十字的绿色按钮放大地图;点击带横线的绿色按钮缩小地图;或者点击绿色箭头查看邻近地区的地图。


METAR-TAF: